Time;durP1;ratioP1;P1;durP2;ratioP2;P2;SDS_P1;SDS_P2;PMS_P1;PMS_P2;Temp;Humidity;BMP_temperature;BMP_pressure;BME280_temperature;BME280_humidity;BME280_pressure;Samples;Min_cycle;Max_cycle;Signal;HPM_P1;HPM_P2
2023/04/05 00:00:32;;;;;;;5.97;1.50;;;21.30;77.00;;;;;;5065672;28;20554;-64
2023/04/05 00:03:00;;;;;;;12.27;2.13;;;21.30;78.40;;;;;;5053468;28;20183;-68
2023/04/05 00:05:33;;;;;;;3.90;1.60;;;21.10;79.10;;;;;;5069520;28;20366;-65
2023/04/05 00:08:07;;;;;;;7.50;2.37;;;21.00;80.60;;;;;;5072117;28;20219;-63
2023/04/05 00:10:34;;;;;;;7.23;2.20;;;20.80;81.70;;;;;;5071624;28;20203;-65
2023/04/05 00:13:01;;;;;;;8.47;2.17;;;20.70;82.50;;;;;;5073011;28;20196;-67
2023/04/05 00:15:30;;;;;;;7.00;2.13;;;20.70;83.20;;;;;;5070781;28;20249;-68
2023/04/05 00:17:59;;;;;;;8.60;3.03;;;20.70;83.10;;;;;;5068220;28;20723;-65
2023/04/05 00:20:26;;;;;;;8.70;2.17;;;20.60;83.30;;;;;;5074266;28;20240;-66
2023/04/05 00:22:53;;;;;;;10.87;2.63;;;20.60;83.50;;;;;;5071271;28;20187;-65
2023/04/05 00:25:23;;;;;;;15.17;3.40;;;20.70;83.50;;;;;;5069371;28;20203;-66
2023/04/05 00:27:54;;;;;;;56.97;7.07;;;20.80;82.80;;;;;;5072826;28;20198;-66
2023/04/05 00:30:21;;;;;;;44.27;6.80;;;20.80;82.80;;;;;;5072699;28;20191;-67
2023/04/05 00:32:49;;;;;;;14.80;3.47;;;20.80;82.70;;;;;;5071668;28;20191;-66
2023/04/05 00:35:17;;;;;;;14.17;3.10;;;20.80;82.50;;;;;;5071345;28;20187;-64
2023/04/05 00:37:45;;;;;;;12.10;3.23;;;20.80;81.80;;;;;;5072368;28;20222;-66
2023/04/05 00:40:12;;;;;;;12.07;2.70;;;20.80;81.60;;;;;;5065857;28;20176;-65
2023/04/05 00:42:39;;;;;;;16.37;3.07;;;21.00;81.50;;;;;;5065229;28;20585;-65
2023/04/05 00:45:07;;;;;;;27.20;3.33;;;21.20;81.20;;;;;;5072376;28;20273;-65
2023/04/05 00:47:35;;;;;;;20.70;3.53;;;21.40;79.00;;;;;;5072013;28;20602;-66
2023/04/05 00:50:03;;;;;;;8.80;1.73;;;21.80;77.90;;;;;;5070020;28;20653;-64
2023/04/05 00:52:31;;;;;;;8.63;1.73;;;21.90;75.60;;;;;;5070634;28;20232;-64
2023/04/05 00:54:58;;;;;;;9.40;2.00;;;22.00;73.90;;;;;;5072799;28;20190;-63
2023/04/05 00:57:28;;;;;;;5.70;1.23;;;22.10;73.90;;;;;;5062968;28;20219;-64
2023/04/05 00:59:59;;;;;;;8.43;1.80;;;22.30;73.40;;;;;;5068704;28;20258;-65
2023/04/05 01:02:33;;;;;;;5.43;1.50;;;22.30;73.10;;;;;;5073959;28;20214;-63
2023/04/05 01:05:11;;;;;;;6.63;1.70;;;22.30;72.60;;;;;;5063965;28;20182;-66
2023/04/05 01:07:53;;;;;;;5.93;1.30;;;22.30;72.20;;;;;;5069347;28;20197;-65
2023/04/05 01:10:26;;;;;;;5.53;1.43;;;22.30;71.50;;;;;;5069248;28;20266;-69
2023/04/05 01:12:53;;;;;;;5.33;1.17;;;22.40;71.30;;;;;;5071617;28;20211;-65
2023/04/05 01:15:21;;;;;;;15.53;1.87;;;22.50;70.20;;;;;;5067469;28;20183;-63
2023/04/05 01:17:48;;;;;;;6.57;1.30;;;22.70;69.10;;;;;;5071504;28;20226;-65
2023/04/05 01:20:16;;;;;;;5.30;1.30;;;22.90;68.60;;;;;;5071322;28;20179;-67
2023/04/05 01:23:12;;;;;;;3.20;1.27;;;23.40;68.40;;;;;;5069805;28;20392;-64
2023/04/05 01:26:20;;;;;;;5.90;1.33;;;23.80;66.30;;;;;;5070776;28;20266;-66
2023/04/05 01:29:18;;;;;;;7.67;1.67;;;24.30;64.90;;;;;;5066930;28;20214;-65
2023/04/05 01:31:52;;;;;;;6.77;1.40;;;24.60;64.10;;;;;;5064680;28;20278;-64
2023/04/05 01:34:25;;;;;;;5.33;1.40;;;24.30;62.60;;;;;;5070318;28;20180;-65
2023/04/05 01:37:04;;;;;;;4.23;1.23;;;24.20;64.30;;;;;;5071771;28;20673;-66
2023/04/05 01:39:34;;;;;;;6.10;1.00;;;24.30;62.00;;;;;;5071050;28;20195;-65
2023/04/05 01:42:03;;;;;;;3.97;1.27;;;24.20;62.80;;;;;;5070880;28;20187;-64
2023/04/05 01:44:30;;;;;;;9.33;1.30;;;24.00;63.00;;;;;;5067978;28;20191;-65
2023/04/05 01:46:58;;;;;;;4.20;1.00;;;24.00;63.40;;;;;;5070866;28;20275;-64
2023/04/05 01:49:28;;;;;;;4.30;1.53;;;24.60;63.00;;;;;;5064233;28;20180;-66
2023/04/05 01:51:55;;;;;;;6.97;1.50;;;25.30;60.50;;;;;;5067854;28;20171;-65
2023/04/05 01:54:23;;;;;;;4.53;1.23;;;25.30;59.20;;;;;;5069430;28;20182;-65
2023/04/05 01:56:50;;;;;;;6.23;1.20;;;25.20;59.50;;;;;;5071317;28;20293;-65
2023/04/05 01:59:17;;;;;;;7.20;1.03;;;25.00;59.50;;;;;;5070666;28;20659;-65
2023/04/05 02:01:44;;;;;;;4.30;1.10;;;24.80;59.10;;;;;;5070532;28;20223;-64
2023/04/05 02:04:12;;;;;;;4.17;0.90;;;24.70;58.50;;;;;;5070678;28;20175;-65
2023/04/05 02:06:40;;;;;;;5.20;1.10;;;24.80;57.20;;;;;;5070749;28;20175;-64
2023/04/05 02:09:07;;;;;;;2.43;0.90;;;25.10;58.40;;;;;;5071341;28;20221;-64
2023/04/05 02:11:34;;;;;;;6.37;1.43;;;24.90;57.40;;;;;;5070192;28;20605;-65
2023/04/05 02:14:02;;;;;;;7.43;1.50;;;24.90;56.90;;;;;;5071549;28;20183;-65
2023/04/05 02:16:32;;;;;;;3.57;1.00;;;24.80;59.20;;;;;;5070321;28;20254;-65
2023/04/05 02:19:00;;;;;;;6.63;1.60;;;24.80;59.10;;;;;;5073714;28;20192;-66
2023/04/05 02:21:27;;;;;;;6.80;2.50;;;24.80;59.50;;;;;;5070668;28;20175;-65
2023/04/05 02:23:55;;;;;;;3.47;1.20;;;24.60;59.80;;;;;;5071296;28;20179;-66
2023/04/05 02:26:22;;;;;;;5.40;1.23;;;24.30;61.20;;;;;;5071067;28;20191;-65
2023/04/05 02:28:49;;;;;;;6.60;1.50;;;24.40;61.60;;;;;;5068332;28;20176;-65
2023/04/05 02:31:17;;;;;;;2.43;0.77;;;24.30;61.20;;;;;;5071212;28;20176;-67
2023/04/05 02:33:45;;;;;;;5.67;1.30;;;24.30;59.90;;;;;;5065100;28;20555;-66
2023/04/05 02:36:13;;;;;;;3.30;1.20;;;24.80;59.40;;;;;;5070758;28;20195;-65
2023/04/05 02:38:40;;;;;;;4.23;1.30;;;25.50;57.30;;;;;;5070547;28;20191;-64
2023/04/05 02:41:11;;;;;;;3.40;0.87;;;25.80;55.30;;;;;;5069214;28;20275;-64
2023/04/05 02:43:38;;;;;;;5.13;1.20;;;26.20;54.30;;;;;;5063414;28;20556;-65
2023/04/05 02:46:06;;;;;;;3.63;1.27;;;26.70;53.60;;;;;;5071147;28;20262;-65
2023/04/05 02:48:33;;;;;;;4.37;0.93;;;26.80;53.40;;;;;;5070935;28;20183;-65
2023/04/05 02:51:00;;;;;;;4.93;1.30;;;27.20;52.80;;;;;;5071025;28;20266;-64
2023/04/05 02:53:28;;;;;;;6.93;1.00;;;27.20;52.00;;;;;;5065156;28;20713;-66
2023/04/05 02:55:56;;;;;;;11.87;1.33;;;27.30;52.60;;;;;;5068170;28;20203;-67
2023/04/05 02:58:24;;;;;;;4.33;1.53;;;27.10;53.30;;;;;;5070702;28;20554;-64
2023/04/05 03:00:53;;;;;;;4.77;1.07;;;27.20;53.30;;;;;;5071140;28;20183;-66
2023/04/05 03:03:22;;;;;;;4.67;1.17;;;27.40;52.60;;;;;;5070621;28;20195;-65
2023/04/05 03:06:08;;;;;;;5.50;1.20;;;27.20;53.10;;;;;;5071585;28;20188;-66
2023/04/05 03:08:48;;;;;;;3.50;1.30;;;27.50;52.80;;;;;;5067424;28;20242;-65
2023/04/05 03:11:16;;;;;;;4.73;1.53;;;27.20;53.20;;;;;;5069648;28;20187;-65
2023/04/05 03:13:43;;;;;;;5.33;1.30;;;27.20;54.20;;;;;;5070692;28;20197;-64
2023/04/05 03:16:11;;;;;;;5.63;1.57;;;27.50;52.80;;;;;;5074521;28;22113;-68
2023/04/05 03:18:38;;;;;;;6.67;1.03;;;27.80;52.90;;;;;;5074351;28;20649;-65
2023/04/05 03:21:10;;;;;;;8.63;1.73;;;27.60;52.60;;;;;;5067824;28;20264;-75
2023/04/05 03:23:38;;;;;;;6.07;1.57;;;27.40;52.80;;;;;;5073705;28;20598;-65
2023/04/05 03:26:06;;;;;;;6.63;1.20;;;27.60;52.50;;;;;;5074101;28;20187;-69
2023/04/05 03:28:33;;;;;;;3.77;1.30;;;27.80;52.10;;;;;;5074036;28;20202;-67
2023/04/05 03:31:01;;;;;;;4.87;1.40;;;27.20;53.10;;;;;;5068804;28;20183;-67
2023/04/05 03:33:28;;;;;;;3.93;1.43;;;27.60;53.00;;;;;;5073361;28;20252;-65
2023/04/05 03:35:56;;;;;;;6.90;1.57;;;28.00;53.20;;;;;;5074056;28;20191;-70
2023/04/05 03:38:23;;;;;;;5.00;0.90;;;28.30;51.60;;;;;;5070855;28;20179;-67
2023/04/05 03:40:50;;;;;;;7.40;1.30;;;27.50;51.50;;;;;;5069595;28;20203;-68
2023/04/05 03:43:18;;;;;;;4.80;0.97;;;27.80;51.70;;;;;;5073915;28;20559;-65
2023/04/05 03:45:45;;;;;;;9.03;2.17;;;27.00;54.20;;;;;;5074100;28;20171;-66
2023/04/05 03:48:12;;;;;;;8.33;1.57;;;27.30;54.10;;;;;;5073091;28;20652;-64
2023/04/05 03:50:40;;;;;;;5.87;1.27;;;27.70;53.50;;;;;;5070368;28;20253;-66
2023/04/05 03:53:07;;;;;;;10.53;1.20;;;28.00;52.60;;;;;;5070625;28;20179;-65
2023/04/05 03:55:34;;;;;;;4.78;1.23;;;28.60;51.00;;;;;;5070704;28;20663;-69
2023/04/05 03:58:02;;;;;;;5.65;1.33;;;28.80;50.30;;;;;;5070725;28;20226;-66
2023/04/05 04:00:29;;;;;;;3.85;1.05;;;28.90;48.80;;;;;;5070105;28;20199;-66
2023/04/05 04:02:57;;;;;;;4.93;1.00;;;28.80;49.10;;;;;;5073798;28;20191;-66
2023/04/05 04:05:24;;;;;;;7.00;1.13;;;29.00;49.50;;;;;;5073471;28;20180;-67
2023/04/05 04:07:52;;;;;;;7.13;1.05;;;29.30;48.60;;;;;;5073212;28;20301;-66
2023/04/05 04:10:19;;;;;;;8.25;1.15;;;29.30;49.30;;;;;;5073272;28;20543;-67
2023/04/05 04:12:47;;;;;;;3.45;1.10;;;29.40;49.30;;;;;;5073433;28;20262;-65
2023/04/05 04:15:14;;;;;;;4.82;1.15;;;29.60;48.70;;;;;;5072967;28;20598;-65
2023/04/05 04:17:41;;;;;;;5.60;1.10;;;29.70;48.50;;;;;;5072068;28;20199;-71
2023/04/05 04:20:09;;;;;;;5.95;1.00;;;29.60;47.80;;;;;;5066656;28;20179;-67
2023/04/05 04:22:39;;;;;;;10.10;1.40;;;29.60;48.00;;;;;;5073378;28;20192;-68
2023/04/05 04:25:11;;;;;;;3.58;0.90;;;29.90;47.90;;;;;;5073104;28;20179;-67
2023/04/05 04:27:41;;;;;;;4.07;1.00;;;29.80;47.30;;;;;;5072155;28;20221;-68
2023/04/05 04:30:11;;;;;;;7.13;1.10;;;29.70;47.70;;;;;;5072964;28;20562;-68
2023/04/05 04:32:52;;;;;;;7.15;1.15;;;29.10;49.30;;;;;;5071454;28;20610;-66
2023/04/05 04:35:27;;;;;;;4.43;1.02;;;29.40;48.40;;;;;;5072858;28;20182;-67
2023/04/05 04:37:58;;;;;;;4.30;0.90;;;29.50;47.40;;;;;;5067999;28;20219;-68
2023/04/05 04:40:39;;;;;;;6.93;1.02;;;29.60;46.20;;;;;;5070914;28;20207;-64
2023/04/05 04:43:17;;;;;;;7.15;1.10;;;29.80;44.80;;;;;;5068978;28;20680;-65
2023/04/05 04:45:48;;;;;;;7.45;1.33;;;30.00;46.00;;;;;;5064645;28;20181;-67
2023/04/05 04:48:16;;;;;;;4.85;1.00;;;30.10;44.70;;;;;;5067026;28;20172;-68
2023/04/05 04:50:44;;;;;;;7.30;1.30;;;30.20;45.30;;;;;;5071209;28;20660;-66
2023/04/05 04:53:17;;;;;;;4.75;1.08;;;30.30;45.90;;;;;;5067718;28;20213;-67
2023/04/05 04:55:48;;;;;;;5.03;1.10;;;30.80;43.30;;;;;;5071401;28;20210;-67
2023/04/05 04:58:17;;;;;;;7.10;1.02;;;30.80;43.80;;;;;;5066105;28;20238;-66
2023/04/05 05:00:45;;;;;;;2.55;0.85;;;30.70;43.70;;;;;;5071973;28;20217;-70
2023/04/05 05:03:13;;;;;;;4.35;0.90;;;30.50;44.00;;;;;;5071234;28;20180;-66
2023/04/05 05:05:48;;;;;;;2.58;0.80;;;30.80;43.90;;;;;;5067857;28;20209;-65
2023/04/05 05:08:16;;;;;;;4.13;0.98;;;30.00;44.50;;;;;;5069816;28;20642;-67
2023/04/05 05:10:44;;;;;;;12.20;1.65;;;30.20;44.90;;;;;;5071941;28;20195;-66
2023/04/05 05:13:12;;;;;;;8.38;1.23;;;30.80;44.40;;;;;;5066368;28;20180;-67
2023/04/05 05:15:40;;;;;;;6.57;1.13;;;30.70;43.20;;;;;;5070009;28;20179;-66
2023/04/05 05:18:09;;;;;;;2.33;0.90;;;31.30;42.50;;;;;;5070135;28;20316;-69
2023/04/05 05:20:36;;;;;;;4.53;0.90;;;32.10;40.20;;;;;;5068077;28;20176;-67
2023/04/05 05:23:04;;;;;;;2.80;0.88;;;31.90;40.80;;;;;;5071653;28;20186;-69
2023/04/05 05:25:31;;;;;;;5.13;1.02;;;31.50;40.90;;;;;;5069328;28;20190;-67
2023/04/05 05:27:59;;;;;;;5.03;1.30;;;31.20;41.90;;;;;;5064902;28;20278;-67
2023/04/05 05:30:27;;;;;;;4.30;0.90;;;31.00;42.20;;;;;;5061517;28;20228;-70
2023/04/05 05:32:56;;;;;;;5.47;1.23;;;30.30;45.10;;;;;;5070045;28;20751;-69
2023/04/05 05:35:23;;;;;;;4.32;1.15;;;29.90;44.70;;;;;;5071560;28;20187;-66
2023/04/05 05:37:51;;;;;;;4.78;0.90;;;29.10;44.80;;;;;;5071977;28;20583;-67
2023/04/05 05:40:18;;;;;;;2.75;0.88;;;29.60;45.40;;;;;;5071827;28;20194;-66
2023/04/05 05:42:46;;;;;;;7.03;0.85;;;29.80;44.60;;;;;;5071428;28;20190;-68
2023/04/05 05:45:13;;;;;;;4.78;1.15;;;29.90;44.50;;;;;;5074089;28;20646;-67
2023/04/05 05:47:41;;;;;;;4.15;0.90;;;31.10;43.30;;;;;;5070250;28;20730;-66
2023/04/05 05:50:09;;;;;;;3.80;1.10;;;31.00;43.20;;;;;;5071501;28;20175;-70
2023/04/05 05:52:36;;;;;;;4.38;0.90;;;31.30;41.70;;;;;;5069789;28;20270;-66
2023/04/05 05:55:03;;;;;;;5.05;1.10;;;31.30;42.40;;;;;;5080857;28;20729;-66
2023/04/05 05:57:31;;;;;;;2.40;1.15;;;31.60;41.30;;;;;;5069818;28;20221;-67
2023/04/05 05:59:58;;;;;;;4.68;1.10;;;31.30;41.60;;;;;;5068784;28;20683;-67
2023/04/05 06:02:26;;;;;;;5.15;0.82;;;31.80;41.00;;;;;;5069563;28;20179;-66
2023/04/05 06:04:53;;;;;;;2.70;0.98;;;31.70;41.00;;;;;;5069774;28;20183;-66
2023/04/05 06:07:21;;;;;;;3.75;0.80;;;31.00;41.60;;;;;;5070336;28;20225;-65
2023/04/05 06:09:48;;;;;;;4.57;0.90;;;30.20;42.90;;;;;;5067926;28;20284;-66
2023/04/05 06:12:16;;;;;;;5.65;1.10;;;30.80;42.60;;;;;;5070598;28;20610;-66
2023/04/05 06:14:43;;;;;;;3.25;0.98;;;31.10;42.80;;;;;;5071451;28;20236;-66
2023/04/05 06:17:10;;;;;;;5.93;0.70;;;30.50;42.80;;;;;;5069726;28;20685;-67
2023/04/05 06:19:38;;;;;;;5.50;0.90;;;30.60;42.80;;;;;;5068971;28;20197;-66
2023/04/05 06:22:05;;;;;;;2.10;0.80;;;30.80;42.00;;;;;;5075609;28;20534;-68
2023/04/05 06:24:32;;;;;;;2.80;0.95;;;31.10;42.00;;;;;;5072088;28;20638;-67
2023/04/05 06:27:00;;;;;;;11.52;1.67;;;30.60;43.60;;;;;;5069918;28;20187;-73
2023/04/05 06:29:28;;;;;;;3.28;1.17;;;30.90;42.60;;;;;;5072249;28;20215;-67
2023/04/05 06:31:55;;;;;;;4.50;1.08;;;31.30;42.00;;;;;;5068495;28;20267;-66
2023/04/05 06:34:23;;;;;;;6.32;1.25;;;30.80;42.60;;;;;;5067740;28;20184;-65
2023/04/05 06:36:50;;;;;;;2.65;0.90;;;30.20;44.80;;;;;;5075745;28;20330;-66
2023/04/05 06:39:18;;;;;;;6.93;1.20;;;30.40;45.20;;;;;;5070928;28;20183;-67
2023/04/05 06:41:45;;;;;;;7.35;1.25;;;30.70;45.30;;;;;;5074467;28;20270;-66
2023/04/05 06:44:13;;;;;;;4.00;1.00;;;30.30;46.10;;;;;;5074726;28;20694;-66
2023/04/05 06:46:40;;;;;;;3.13;1.10;;;30.30;45.60;;;;;;5073912;28;20182;-66
2023/04/05 06:49:07;;;;;;;3.38;1.00;;;30.50;45.50;;;;;;5074568;28;20341;-67
2023/04/05 06:51:35;;;;;;;3.65;1.02;;;30.60;44.90;;;;;;5069381;28;20188;-66
2023/04/05 06:54:02;;;;;;;3.80;0.75;;;30.10;46.50;;;;;;5074465;28;20183;-66
2023/04/05 06:56:29;;;;;;;4.25;0.90;;;29.60;46.90;;;;;;5072435;28;20207;-67
2023/04/05 06:58:58;;;;;;;3.78;1.17;;;29.50;47.20;;;;;;5074590;28;20219;-66
2023/04/05 07:01:27;;;;;;;7.70;1.00;;;29.10;48.40;;;;;;5070478;28;20179;-66
2023/04/05 07:03:54;;;;;;;3.58;0.80;;;28.80;49.10;;;;;;5074451;28;20260;-72
2023/04/05 07:06:22;;;;;;;4.70;1.00;;;28.60;49.30;;;;;;5075436;28;20175;-66
2023/04/05 07:08:50;;;;;;;3.67;1.17;;;28.10;50.60;;;;;;5077947;28;20542;-67
2023/04/05 07:11:17;;;;;;;6.67;1.20;;;27.40;52.60;;;;;;5073936;28;20195;-67
2023/04/05 07:13:45;;;;;;;3.75;1.10;;;27.30;52.80;;;;;;5071210;28;20630;-65
2023/04/05 07:16:12;;;;;;;5.13;1.10;;;26.70;55.20;;;;;;5068853;28;20267;-66
2023/04/05 07:18:39;;;;;;;3.47;1.00;;;26.50;56.30;;;;;;5069707;28;20189;-66
2023/04/05 07:21:07;;;;;;;6.30;1.20;;;26.00;56.60;;;;;;5069395;28;20253;-67
2023/04/05 07:23:35;;;;;;;3.57;1.07;;;25.30;58.90;;;;;;5072706;28;20186;-66
2023/04/05 07:26:07;;;;;;;5.00;1.60;;;25.00;60.30;;;;;;5075749;28;20186;-66
2023/04/05 07:28:35;;;;;;;4.97;1.10;;;24.90;60.40;;;;;;5069497;28;20186;-66
2023/04/05 07:31:03;;;;;;;4.83;1.10;;;24.30;61.30;;;;;;5073092;28;20198;-66
2023/04/05 07:33:30;;;;;;;2.03;1.00;;;24.00;61.80;;;;;;5071644;28;20187;-66
2023/04/05 07:35:58;;;;;;;4.43;1.10;;;23.90;61.50;;;;;;5073234;28;20185;-66
2023/04/05 07:38:27;;;;;;;3.60;0.97;;;23.60;62.50;;;;;;5071660;28;20211;-65
2023/04/05 07:40:55;;;;;;;7.27;4.03;;;23.30;62.30;;;;;;5068511;28;20464;-66
2023/04/05 07:43:24;;;;;;;7.00;4.53;;;23.20;63.30;;;;;;5072766;28;20202;-65
2023/04/05 07:45:52;;;;;;;7.03;2.93;;;23.20;63.50;;;;;;5072317;28;20180;-66
2023/04/05 07:48:20;;;;;;;8.07;1.67;;;23.20;64.00;;;;;;5072467;28;20179;-65
2023/04/05 07:50:48;;;;;;;4.60;1.10;;;23.10;64.50;;;;;;5073259;28;20218;-70
2023/04/05 07:53:15;;;;;;;3.33;1.10;;;23.10;64.80;;;;;;5073323;28;20190;-67
2023/04/05 07:55:43;;;;;;;7.77;5.10;;;23.10;65.50;;;;;;5073369;28;20215;-65
2023/04/05 07:58:10;;;;;;;12.77;7.50;;;23.00;65.90;;;;;;5075301;28;20302;-66
2023/04/05 08:00:38;;;;;;;5.83;2.83;;;22.80;66.70;;;;;;5070338;28;20644;-65
2023/04/05 08:03:05;;;;;;;7.57;3.37;;;22.80;67.40;;;;;;5073330;28;20270;-65
2023/04/05 08:05:33;;;;;;;6.33;1.77;;;22.80;67.70;;;;;;5073510;28;20225;-64
2023/04/05 08:08:00;;;;;;;7.30;1.87;;;22.80;68.30;;;;;;5073895;28;20204;-67
2023/04/05 08:10:28;;;;;;;8.20;3.53;;;22.70;69.20;;;;;;5072764;28;20646;-68
2023/04/05 08:12:55;;;;;;;7.10;3.40;;;22.50;69.50;;;;;;5069639;28;20187;-68
2023/04/05 08:15:22;;;;;;;6.07;2.80;;;22.50;70.20;;;;;;5070298;28;20186;-69
2023/04/05 08:17:50;;;;;;;12.30;2.23;;;22.40;70.40;;;;;;5073194;28;20214;-65
2023/04/05 08:20:17;;;;;;;9.60;2.37;;;22.40;71.20;;;;;;5071441;28;20172;-66
2023/04/05 08:22:45;;;;;;;7.70;1.77;;;22.30;71.50;;;;;;5073783;28;20183;-65
2023/04/05 08:25:12;;;;;;;8.53;1.67;;;22.30;71.50;;;;;;5088962;28;20206;-66
2023/04/05 08:27:40;;;;;;;7.63;2.10;;;22.30;71.90;;;;;;5065429;28;20301;-66
2023/04/05 08:30:09;;;;;;;6.63;1.77;;;22.30;71.70;;;;;;5073377;28;20250;-66
2023/04/05 08:32:36;;;;;;;10.23;2.53;;;22.20;72.20;;;;;;5070128;28;20183;-65
2023/04/05 08:35:04;;;;;;;6.03;2.07;;;22.20;72.30;;;;;;5073160;28;20179;-65
2023/04/05 08:37:35;;;;;;;8.60;2.10;;;22.10;73.10;;;;;;5065405;28;20235;-69
2023/04/05 08:40:04;;;;;;;11.57;2.50;;;22.20;73.30;;;;;;5072164;28;20171;-69
2023/04/05 08:42:41;;;;;;;6.93;2.10;;;22.10;73.40;;;;;;5072805;28;20183;-68
2023/04/05 08:45:18;;;;;;;9.07;2.50;;;22.00;73.50;;;;;;5073205;28;20179;-66
2023/04/05 08:47:48;;;;;;;6.80;2.00;;;22.00;73.60;;;;;;5072710;28;20628;-66
2023/04/05 08:50:15;;;;;;;9.77;2.53;;;21.80;73.60;;;;;;5072061;28;20549;-65
2023/04/05 08:52:49;;;;;;;6.17;2.10;;;21.80;73.80;;;;;;5068784;28;20175;-65
2023/04/05 08:55:19;;;;;;;8.43;2.33;;;21.80;73.90;;;;;;5072727;28;20707;-71
2023/04/05 08:57:53;;;;;;;7.03;2.13;;;21.80;74.00;;;;;;5070961;28;20219;-66
2023/04/05 09:00:21;;;;;;;7.70;2.27;;;21.80;73.70;;;;;;5070518;28;20175;-67
2023/04/05 09:02:56;;;;;;;7.27;2.33;;;21.70;73.50;;;;;;5068598;28;20190;-66
2023/04/05 09:05:24;;;;;;;7.67;2.20;;;21.70;73.60;;;;;;5071186;28;20197;-65
2023/04/05 09:07:52;;;;;;;8.40;2.13;;;21.70;73.80;;;;;;5070376;28;21210;-66
2023/04/05 09:10:20;;;;;;;5.37;2.00;;;21.70;73.70;;;;;;5072033;28;20222;-65
2023/04/05 09:12:48;;;;;;;7.43;2.30;;;21.60;73.80;;;;;;5072395;28;20241;-66
2023/04/05 09:15:16;;;;;;;8.23;2.17;;;21.50;73.90;;;;;;5068733;28;20175;-64
2023/04/05 09:17:44;;;;;;;15.17;5.00;;;21.50;73.90;;;;;;5064393;28;20299;-66
2023/04/05 09:20:11;;;;;;;11.87;4.40;;;21.50;74.00;;;;;;5068973;28;20228;-66
2023/04/05 09:22:48;;;;;;;14.80;3.20;;;21.40;74.10;;;;;;5070072;28;20183;-65
2023/04/05 09:25:34;;;;;;;15.77;2.80;;;21.30;74.20;;;;;;5069970;28;20178;-67
2023/04/05 09:28:04;;;;;;;8.93;2.20;;;21.30;74.40;;;;;;5067684;28;20920;-66
2023/04/05 09:30:33;;;;;;;7.13;2.40;;;21.30;74.70;;;;;;5070749;28;20268;-65
2023/04/05 09:33:00;;;;;;;9.53;4.80;;;21.30;74.50;;;;;;5068386;28;20179;-65
2023/04/05 09:35:31;;;;;;;7.47;2.80;;;21.30;74.60;;;;;;5068207;28;20258;-67
2023/04/05 09:38:04;;;;;;;16.93;4.80;;;21.30;74.50;;;;;;5070804;28;20280;-64
2023/04/05 09:40:48;;;;;;;10.43;3.60;;;21.20;74.80;;;;;;5070310;28;20182;-68
2023/04/05 09:43:35;;;;;;;7.60;2.63;;;21.20;74.70;;;;;;5066587;28;20182;-64
2023/04/05 09:46:03;;;;;;;10.30;2.40;;;21.20;74.70;;;;;;5070398;28;20179;-66
2023/04/05 09:48:56;;;;;;;10.03;2.17;;;21.20;74.70;;;;;;5069928;28;20241;-64
2023/04/05 09:51:31;;;;;;;8.13;2.30;;;21.10;74.90;;;;;;5067088;28;20195;-64
2023/04/05 09:54:00;;;;;;;8.90;2.50;;;21.00;74.90;;;;;;5069978;28;20183;-64
2023/04/05 09:56:30;;;;;;;5.47;2.00;;;21.00;74.90;;;;;;5071416;28;20234;-65
2023/04/05 09:59:03;;;;;;;11.07;2.50;;;20.90;75.10;;;;;;5071194;28;20521;-66
2023/04/05 10:01:34;;;;;;;9.63;2.20;;;20.90;75.20;;;;;;5065359;28;20190;-66
2023/04/05 10:04:01;;;;;;;8.70;2.53;;;20.90;75.60;;;;;;5070118;28;20178;-66
2023/04/05 10:06:39;;;;;;;9.50;2.77;;;20.90;75.50;;;;;;5063617;28;20194;-66
2023/04/05 10:09:08;;;;;;;8.63;2.40;;;20.80;75.20;;;;;;5065205;28;20241;-65
2023/04/05 10:11:41;;;;;;;9.30;2.60;;;20.80;75.30;;;;;;5071110;28;20175;-65
2023/04/05 10:14:09;;;;;;;19.17;9.30;;;20.80;75.50;;;;;;5071646;28;20199;-64
2023/04/05 10:17:05;;;;;;;15.27;9.37;;;20.70;75.40;;;;;;5075299;28;20344;-65
2023/04/05 10:19:41;;;;;;;29.53;17.27;;;20.70;75.70;;;;;;5068557;28;20309;-65
2023/04/05 10:22:17;;;;;;;12.07;6.17;;;20.70;75.90;;;;;;5073541;28;20269;-64
2023/04/05 10:24:59;;;;;;;12.57;3.90;;;20.70;76.10;;;;;;5073535;28;20210;-65
2023/04/05 10:27:47;;;;;;;9.47;2.97;;;20.70;76.00;;;;;;5074488;28;20179;-67
2023/04/05 10:30:16;;;;;;;9.87;3.47;;;20.60;76.20;;;;;;5071590;28;20649;-65
2023/04/05 10:33:13;;;;;;;13.53;4.37;;;20.60;76.40;;;;;;5074551;28;20190;-66
2023/04/05 10:36:07;;;;;;;12.07;4.27;;;20.50;76.40;;;;;;5066395;28;20183;-65
2023/04/05 10:39:05;;;;;;;11.10;4.10;;;20.40;76.90;;;;;;5073024;28;20191;-66
2023/04/05 10:41:40;;;;;;;10.60;4.17;;;20.50;77.20;;;;;;5073543;28;20230;-65
2023/04/05 10:44:10;;;;;;;9.73;3.60;;;20.30;77.50;;;;;;5074958;28;20612;-66
2023/04/05 10:46:40;;;;;;;16.60;4.13;;;20.30;77.80;;;;;;5066711;28;20190;-65
2023/04/05 10:49:36;;;;;;;12.90;3.43;;;20.30;78.20;;;;;;5069866;28;20175;-66
2023/04/05 10:52:05;;;;;;;15.27;4.30;;;20.30;78.30;;;;;;5070370;28;20264;-64
2023/04/05 10:54:38;;;;;;;12.93;4.40;;;20.20;79.00;;;;;;5074446;28;20187;-65
2023/04/05 10:57:08;;;;;;;12.43;4.70;;;20.20;78.90;;;;;;5069729;28;20210;-64
2023/04/05 10:59:40;;;;;;;17.87;4.70;;;20.10;79.00;;;;;;5072938;28;20258;-64
2023/04/05 11:02:09;;;;;;;10.87;4.20;;;20.20;79.40;;;;;;5072488;28;20262;-65
2023/04/05 11:04:38;;;;;;;11.33;4.73;;;20.10;79.50;;;;;;5067780;28;20186;-65
2023/04/05 11:07:13;;;;;;;10.47;4.23;;;20.10;79.20;;;;;;5070397;28;20578;-65
2023/04/05 11:09:51;;;;;;;14.93;4.57;;;20.00;79.60;;;;;;5067278;28;20222;-66
2023/04/05 11:12:18;;;;;;;12.10;4.30;;;20.00;79.70;;;;;;5072439;28;20179;-65
2023/04/05 11:14:46;;;;;;;10.07;4.07;;;20.00;80.00;;;;;;5073059;28;20649;-67
2023/04/05 11:17:27;;;;;;;11.03;4.03;;;20.00;80.30;;;;;;5069946;28;20618;-65
2023/04/05 11:20:11;;;;;;;11.30;3.93;;;19.90;80.50;;;;;;5069518;28;20270;-65
2023/04/05 11:22:39;;;;;;;11.47;3.83;;;19.90;80.40;;;;;;5072876;28;20183;-65
2023/04/05 11:25:21;;;;;;;10.90;4.00;;;19.90;80.40;;;;;;5072474;28;20266;-66
2023/04/05 11:28:00;;;;;;;8.93;4.17;;;19.80;80.50;;;;;;5069152;28;20284;-64
2023/04/05 11:30:59;;;;;;;9.73;4.10;;;19.80;80.30;;;;;;5071550;28;20191;-64
2023/04/05 11:33:46;;;;;;;11.77;4.53;;;19.70;80.90;;;;;;5071295;28;20289;-63
2023/04/05 11:36:15;;;;;;;10.40;3.40;;;19.70;80.80;;;;;;5069301;28;20525;-65
2023/04/05 11:38:45;;;;;;;11.13;3.60;;;19.60;80.60;;;;;;5071600;28;20197;-65
2023/04/05 11:41:16;;;;;;;13.50;3.53;;;19.60;80.80;;;;;;5072329;28;20290;-66
2023/04/05 11:43:50;;;;;;;9.43;3.40;;;19.60;80.90;;;;;;5070883;28;20186;-65
2023/04/05 11:46:18;;;;;;;20.23;4.20;;;19.60;81.20;;;;;;5071823;28;20265;-64
2023/04/05 11:48:51;;;;;;;8.10;3.20;;;19.60;81.30;;;;;;5065426;28;20229;-65
2023/04/05 11:51:23;;;;;;;11.47;3.50;;;19.60;81.80;;;;;;5070970;28;20256;-65
2023/04/05 11:53:50;;;;;;;13.70;3.57;;;19.60;81.90;;;;;;5070616;28;20677;-66
2023/04/05 11:56:18;;;;;;;10.63;3.43;;;19.50;82.10;;;;;;5070222;28;20607;-64
2023/04/05 11:58:46;;;;;;;14.60;3.80;;;19.50;82.40;;;;;;5070227;28;20532;-64
2023/04/05 12:01:13;;;;;;;11.40;3.30;;;19.50;82.40;;;;;;5072085;28;20175;-65
2023/04/05 12:03:41;;;;;;;11.67;3.23;;;19.50;82.70;;;;;;5065252;28;20190;-64
2023/04/05 12:06:08;;;;;;;10.07;3.50;;;19.50;82.80;;;;;;5070137;28;20191;-66
2023/04/05 12:08:48;;;;;;;9.63;3.20;;;19.50;82.60;;;;;;4972836;28;2817795;-65
2023/04/05 12:11:24;;;;;;;6.63;2.60;;;19.60;82.50;;;;;;5073296;28;20637;-66
2023/04/05 12:14:02;;;;;;;11.97;3.03;;;19.60;82.70;;;;;;5073273;28;20522;-68
2023/04/05 12:16:30;;;;;;;9.30;2.70;;;19.70;82.40;;;;;;5072897;28;20538;-65
2023/04/05 12:18:59;;;;;;;11.70;3.47;;;19.70;82.50;;;;;;5069825;28;20652;-65
2023/04/05 12:21:27;;;;;;;12.67;3.00;;;19.60;82.50;;;;;;5071631;28;20284;-65
2023/04/05 12:23:55;;;;;;;6.17;2.50;;;19.60;82.40;;;;;;5073131;28;20556;-65
2023/04/05 12:26:23;;;;;;;10.43;3.20;;;19.60;82.90;;;;;;5072946;28;20191;-65
2023/04/05 12:28:52;;;;;;;8.57;3.37;;;19.60;82.80;;;;;;5072911;28;20260;-65
2023/04/05 12:31:43;;;;;;;10.73;3.43;;;19.60;82.40;;;;;;5069916;28;20534;-64
2023/04/05 12:34:12;;;;;;;8.67;2.87;;;19.60;82.50;;;;;;5067521;28;20199;-63
2023/04/05 12:36:43;;;;;;;7.40;2.80;;;19.50;82.70;;;;;;5071898;28;20290;-64
2023/04/05 12:39:10;;;;;;;7.00;2.60;;;19.50;82.80;;;;;;5072767;28;20775;-65
2023/04/05 12:41:38;;;;;;;10.37;3.33;;;19.50;82.90;;;;;;5070122;28;20270;-65
2023/04/05 12:44:11;;;;;;;6.90;2.93;;;19.50;83.40;;;;;;5072523;28;20191;-65
2023/04/05 12:46:42;;;;;;;8.53;3.33;;;19.50;83.40;;;;;;5071577;28;20187;-64
2023/04/05 12:49:15;;;;;;;8.73;3.50;;;19.40;83.50;;;;;;5072258;28;20191;-66
2023/04/05 12:51:46;;;;;;;11.73;3.20;;;19.50;83.60;;;;;;5070821;28;20191;-64
2023/04/05 12:54:21;;;;;;;12.50;3.03;;;19.50;83.50;;;;;;5071814;28;20772;-65
2023/04/05 12:56:56;;;;;;;10.47;3.00;;;19.50;83.70;;;;;;5070753;28;20612;-65
2023/04/05 12:59:24;;;;;;;9.50;3.20;;;19.50;83.70;;;;;;5072236;28;20187;-64